createdAt,value
2018-12-10T00:02:18.292Z,7.50
2018-12-10T00:04:46.604Z,7.50
2018-12-10T00:07:15.250Z,7.50
2018-12-10T00:09:43.803Z,7.50
2018-12-10T00:12:12.159Z,7.50
2018-12-10T00:14:49.445Z,7.50
2018-12-10T00:17:17.792Z,7.50
2018-12-10T00:22:39.467Z,7.50
2018-12-10T00:25:08.066Z,7.40
2018-12-10T00:27:37.222Z,7.40
2018-12-10T00:30:06.878Z,7.40
2018-12-10T00:32:35.227Z,7.40
2018-12-10T00:35:04.330Z,7.20
2018-12-10T00:37:32.596Z,7.00
2018-12-10T00:40:01.222Z,7.00
2018-12-10T00:42:29.552Z,7.00
2018-12-10T00:44:57.905Z,6.90
2018-12-10T00:47:26.224Z,6.90
2018-12-10T00:49:54.598Z,6.90
2018-12-10T00:52:23.058Z,6.90
2018-12-10T00:54:51.712Z,6.90
2018-12-10T00:57:20.942Z,7.00
2018-12-10T00:59:49.270Z,7.00
2018-12-10T01:02:17.711Z,7.00
2018-12-10T01:04:46.307Z,7.10
2018-12-10T01:07:14.754Z,7.10
2018-12-10T01:09:43.410Z,7.10
2018-12-10T01:12:11.719Z,7.00
2018-12-10T01:14:40.103Z,7.00
2018-12-10T01:17:09.659Z,7.00
2018-12-10T01:19:37.978Z,7.00
2018-12-10T01:22:07.303Z,7.10
2018-12-10T01:24:35.682Z,7.10
2018-12-10T01:27:04.112Z,7.10
2018-12-10T01:29:32.522Z,7.10
2018-12-10T01:32:00.854Z,7.10
2018-12-10T01:34:29.281Z,7.10
2018-12-10T01:36:57.672Z,7.10
2018-12-10T01:39:26.498Z,7.20
2018-12-10T01:41:54.815Z,7.20
2018-12-10T01:44:23.615Z,7.20
2018-12-10T01:46:51.941Z,7.20
2018-12-10T01:49:20.263Z,7.30
2018-12-10T01:51:48.689Z,7.30
2018-12-10T01:54:17.118Z,7.40
2018-12-10T01:56:46.640Z,7.30
2018-12-10T01:59:14.953Z,7.20
2018-12-10T02:01:43.857Z,7.20
2018-12-10T02:04:12.274Z,7.10
2018-12-10T02:06:40.588Z,7.10
2018-12-10T02:09:09.201Z,7.10
2018-12-10T02:11:37.561Z,7.00
2018-12-10T02:14:06.015Z,7.00
2018-12-10T02:16:34.347Z,7.00
2018-12-10T02:19:02.693Z,6.90
2018-12-10T02:21:31.070Z,6.90
2018-12-10T02:23:59.434Z,6.90
2018-12-10T02:26:28.120Z,7.00
2018-12-10T02:29:02.103Z,7.00
2018-12-10T02:31:31.535Z,7.00
2018-12-10T02:33:59.826Z,7.00
2018-12-10T02:36:28.354Z,7.00
2018-12-10T02:38:56.734Z,7.00
2018-12-10T02:41:25.066Z,7.00
2018-12-10T02:43:53.386Z,7.00
2018-12-10T02:46:21.799Z,7.00
2018-12-10T02:48:50.149Z,7.10
2018-12-10T02:51:18.498Z,7.00
2018-12-10T02:53:46.807Z,7.00
2018-12-10T02:56:15.179Z,7.00
2018-12-10T02:58:43.543Z,7.00
2018-12-10T03:01:12.642Z,7.10
2018-12-10T03:03:40.897Z,7.10
2018-12-10T03:06:09.387Z,7.10
2018-12-10T03:08:37.858Z,7.10
2018-12-10T03:11:06.215Z,7.20
2018-12-10T03:13:36.474Z,7.30
2018-12-10T03:16:05.171Z,7.20
2018-12-10T03:18:33.502Z,7.20
2018-12-10T03:21:01.936Z,7.10
2018-12-10T03:23:30.220Z,7.10
2018-12-10T03:25:58.716Z,7.10
2018-12-10T03:28:27.236Z,7.10
2018-12-10T03:30:55.522Z,7.20
2018-12-10T03:33:23.840Z,7.20
2018-12-10T03:35:52.285Z,7.20
2018-12-10T03:38:20.559Z,7.20
2018-12-10T03:41:07.882Z,7.30
2018-12-10T03:43:43.974Z,7.30
2018-12-10T04:09:05.554Z,7.50
2018-12-10T04:11:39.860Z,7.50
2018-12-10T04:14:27.487Z,7.50
2018-12-10T04:19:52.610Z,7.20
2018-12-10T04:22:32.218Z,7.20
2018-12-10T04:25:04.847Z,7.10
2018-12-10T04:27:46.740Z,6.90
2018-12-10T04:30:28.326Z,6.80
2018-12-10T04:33:08.737Z,6.60
2018-12-10T04:35:39.952Z,6.60
2018-12-10T04:41:03.518Z,6.60
2018-12-10T04:43:31.921Z,6.60
2018-12-10T04:46:00.371Z,6.60
2018-12-10T04:48:29.040Z,6.60
2018-12-10T04:50:57.354Z,6.60
2018-12-10T04:53:25.674Z,6.60
2018-12-10T04:55:54.010Z,6.60
2018-12-10T04:58:22.368Z,6.60
2018-12-10T05:00:50.762Z,6.60
2018-12-10T05:03:22.134Z,6.60
2018-12-10T05:05:50.486Z,6.60
2018-12-10T05:08:18.825Z,6.70
2018-12-10T05:10:47.234Z,6.70
2018-12-10T05:13:15.720Z,6.70
2018-12-10T05:15:44.770Z,6.70
2018-12-10T05:18:13.304Z,6.80
2018-12-10T05:20:41.621Z,6.80
2018-12-10T05:23:09.941Z,6.80
2018-12-10T05:25:38.386Z,6.80
2018-12-10T05:28:06.747Z,6.80
2018-12-10T05:30:35.144Z,6.90
2018-12-10T05:33:03.754Z,6.90
2018-12-10T05:35:32.053Z,6.90
2018-12-10T05:38:00.361Z,6.90
2018-12-10T05:40:28.734Z,6.90
2018-12-10T05:42:57.110Z,6.80
2018-12-10T05:45:25.518Z,6.80
2018-12-10T05:47:53.898Z,6.80
2018-12-10T05:50:23.661Z,6.90
2018-12-10T05:52:52.390Z,6.90
2018-12-10T05:55:21.011Z,7.00
2018-12-10T05:57:49.455Z,6.90
2018-12-10T06:00:18.027Z,7.00
2018-12-10T06:02:46.492Z,7.00
2018-12-10T06:05:15.058Z,7.10
2018-12-10T06:07:43.662Z,7.20
2018-12-10T06:10:12.260Z,7.20
2018-12-10T06:12:40.963Z,7.20
2018-12-10T06:15:12.802Z,7.20
2018-12-10T06:17:41.269Z,7.20
2018-12-10T06:20:09.719Z,7.30
2018-12-10T06:22:38.451Z,7.10
2018-12-10T06:25:08.086Z,7.00
2018-12-10T06:27:36.633Z,7.00
2018-12-10T06:30:05.924Z,6.90
2018-12-10T06:32:34.480Z,6.90
2018-12-10T06:35:03.106Z,6.90
2018-12-10T06:37:37.523Z,6.90
2018-12-10T06:40:02.261Z,6.80
2018-12-10T06:42:30.866Z,6.80
2018-12-10T06:44:59.425Z,6.80
2018-12-10T06:47:28.797Z,6.70
2018-12-10T06:50:19.160Z,6.70
2018-12-10T06:52:59.089Z,6.80
2018-12-10T06:55:27.606Z,6.80
2018-12-10T06:58:09.297Z,6.80
2018-12-10T07:05:03.417Z,6.80
2018-12-10T07:07:32.871Z,7.30
2018-12-10T07:10:15.667Z,6.80
2018-12-10T07:12:45.139Z,6.80
2018-12-10T07:15:13.928Z,6.80
2018-12-10T07:17:43.481Z,6.90
2018-12-10T07:20:11.958Z,6.90
2018-12-10T07:22:40.437Z,7.00
2018-12-10T07:25:08.935Z,7.00
2018-12-10T07:27:37.476Z,7.00
2018-12-10T07:30:07.055Z,7.10
2018-12-10T07:32:35.598Z,7.10
2018-12-10T07:35:04.230Z,7.20
2018-12-10T07:37:32.807Z,7.20
2018-12-10T07:40:01.574Z,7.30
2018-12-10T07:42:31.136Z,7.40
2018-12-10T07:44:59.619Z,7.30
2018-12-10T07:47:28.203Z,7.30
2018-12-10T07:53:06.562Z,7.40
2018-12-10T07:55:35.115Z,7.40
2018-12-10T07:58:05.646Z,7.30
2018-12-10T08:00:34.203Z,7.30
2018-12-10T08:03:12.603Z,7.40
2018-12-10T08:05:41.601Z,7.40
2018-12-10T08:08:10.268Z,7.40
2018-12-10T08:10:38.813Z,7.40
2018-12-10T08:13:07.260Z,7.50
2018-12-10T08:15:35.732Z,7.50
2018-12-10T08:18:05.336Z,7.50
2018-12-10T08:20:33.825Z,7.60
2018-12-10T08:23:02.387Z,7.60
2018-12-10T08:25:31.224Z,7.60
2018-12-10T08:27:59.659Z,7.60
2018-12-10T08:30:28.300Z,7.60
2018-12-10T08:32:56.942Z,7.60
2018-12-10T08:35:25.567Z,7.60
2018-12-10T08:37:54.025Z,7.60
2018-12-10T08:40:22.817Z,7.60
2018-12-10T08:42:51.514Z,7.60
2018-12-10T08:45:19.958Z,7.60
2018-12-10T08:47:48.286Z,7.60
2018-12-10T08:50:16.669Z,7.60
2018-12-10T08:52:45.013Z,7.70
2018-12-10T08:55:13.396Z,7.70
2018-12-10T08:57:41.710Z,7.70
2018-12-10T09:00:10.418Z,7.70
2018-12-10T09:02:38.785Z,7.80
2018-12-10T09:18:54.788Z,7.90
2018-12-10T09:21:23.609Z,8.00
2018-12-10T09:23:52.281Z,8.00
2018-12-10T09:26:20.737Z,8.00
2018-12-10T09:28:49.028Z,8.00
2018-12-10T09:31:18.311Z,8.10
2018-12-10T09:33:46.754Z,8.10
2018-12-10T09:36:15.226Z,8.10
2018-12-10T09:38:43.653Z,8.20
2018-12-10T09:41:12.062Z,8.10
2018-12-10T09:43:39.917Z,8.10
2018-12-10T09:49:11.109Z,8.10
2018-12-10T09:51:40.424Z,8.10
2018-12-10T09:54:10.915Z,8.10
2018-12-10T09:56:40.347Z,8.20
2018-12-10T09:59:29.445Z,8.20
2018-12-10T10:01:58.532Z,8.20
2018-12-10T10:04:32.493Z,8.20
2018-12-10T10:07:02.110Z,8.30
2018-12-10T10:09:32.775Z,8.30
2018-12-10T10:12:02.077Z,8.40
2018-12-10T10:14:31.280Z,8.40
2018-12-10T10:17:05.478Z,8.40
2018-12-10T10:19:40.714Z,8.30
2018-12-10T10:22:10.353Z,8.20
2018-12-10T10:24:39.144Z,8.20
2018-12-10T10:27:08.188Z,8.20
2018-12-10T10:29:37.762Z,8.30
2018-12-10T10:32:08.125Z,8.20
2018-12-10T10:34:37.415Z,8.20
2018-12-10T10:37:06.304Z,8.10
2018-12-10T10:42:46.049Z,8.00
2018-12-10T10:45:15.091Z,8.00
2018-12-10T10:47:43.649Z,8.00
2018-12-10T10:50:12.235Z,7.90
2018-12-10T10:53:08.013Z,7.90
2018-12-10T10:55:36.509Z,7.90
2018-12-10T10:58:04.858Z,8.00
2018-12-10T11:01:38.197Z,7.90
2018-12-10T11:04:06.616Z,8.00
2018-12-10T11:06:35.093Z,8.00
2018-12-10T11:09:06.355Z,8.10
2018-12-10T11:11:35.739Z,8.10
2018-12-10T11:14:04.358Z,8.10
2018-12-10T11:16:34.160Z,8.20
2018-12-10T11:19:02.510Z,8.10
2018-12-10T11:21:31.066Z,8.10
2018-12-10T11:23:59.430Z,8.10
2018-12-10T11:26:28.009Z,8.10
2018-12-10T11:28:57.130Z,8.10
2018-12-10T11:31:27.166Z,8.10
2018-12-10T11:33:55.978Z,8.00
2018-12-10T11:36:24.867Z,8.00
2018-12-10T11:38:57.933Z,8.00
2018-12-10T11:41:23.860Z,8.00
2018-12-10T11:43:52.245Z,8.00
2018-12-10T11:46:21.354Z,8.00
2018-12-10T11:48:50.236Z,7.90
2018-12-10T11:51:24.020Z,7.90
2018-12-10T11:53:59.558Z,8.00
2018-12-10T11:56:28.121Z,8.10
2018-12-10T11:58:56.521Z,8.10
2018-12-10T12:01:24.969Z,8.10
2018-12-10T12:03:53.554Z,8.10
2018-12-10T12:06:30.015Z,8.10
2018-12-10T12:08:59.709Z,8.10
2018-12-10T12:11:28.962Z,8.10
2018-12-10T12:13:57.350Z,8.10
2018-12-10T12:16:26.839Z,8.10
2018-12-10T12:18:55.318Z,8.10
2018-12-10T12:21:23.956Z,8.10
2018-12-10T12:23:52.378Z,8.10
2018-12-10T12:26:20.847Z,8.10
2018-12-10T12:28:49.667Z,8.10
2018-12-10T12:31:18.114Z,8.10
2018-12-10T12:33:46.682Z,8.10
2018-12-10T12:36:15.133Z,8.20
2018-12-10T12:38:43.575Z,8.10
2018-12-10T12:41:12.513Z,8.10
2018-12-10T12:43:40.876Z,8.10
2018-12-10T12:46:09.506Z,8.10
2018-12-10T12:48:38.085Z,8.10
2018-12-10T12:51:06.782Z,8.10
2018-12-10T12:53:35.405Z,8.10
2018-12-10T12:56:04.057Z,8.20
2018-12-10T12:58:32.324Z,8.10
2018-12-10T13:01:00.803Z,8.10
2018-12-10T13:03:29.187Z,8.10
2018-12-10T13:05:57.746Z,8.10
2018-12-10T13:08:30.940Z,8.00
2018-12-10T13:10:56.718Z,8.10
2018-12-10T13:13:25.203Z,8.00
2018-12-10T13:15:53.920Z,8.00
2018-12-10T13:18:22.347Z,8.00
2018-12-10T13:20:50.848Z,8.00
2018-12-10T13:23:20.095Z,8.00
2018-12-10T13:25:48.439Z,8.00
2018-12-10T13:28:16.837Z,7.90
2018-12-10T13:30:45.476Z,7.90
2018-12-10T13:33:14.044Z,7.90
2018-12-10T13:35:42.359Z,7.90
2018-12-10T13:38:12.550Z,7.90
2018-12-10T13:40:41.189Z,7.90
2018-12-10T13:43:10.243Z,7.90
2018-12-10T13:45:38.914Z,7.80
2018-12-10T13:48:07.645Z,7.80
2018-12-10T13:50:36.467Z,7.70
2018-12-10T13:53:04.882Z,7.60
2018-12-10T13:55:33.174Z,7.60
2018-12-10T13:58:02.641Z,7.60
2018-12-10T14:00:31.141Z,8.00
2018-12-10T14:03:04.068Z,7.60
2018-12-10T14:05:32.474Z,7.50
2018-12-10T14:08:00.864Z,7.60
2018-12-10T14:10:29.482Z,7.60
2018-12-10T14:12:57.779Z,7.60
2018-12-10T14:15:26.311Z,7.60
2018-12-10T14:17:54.610Z,7.60
2018-12-10T14:20:22.923Z,7.60
2018-12-10T14:22:51.214Z,7.60
2018-12-10T14:25:26.946Z,7.50
2018-12-10T14:27:55.304Z,7.60
2018-12-10T14:30:24.026Z,7.60
2018-12-10T14:32:52.515Z,7.60
2018-12-10T14:35:20.929Z,7.60
2018-12-10T14:37:49.247Z,7.60
2018-12-10T14:40:17.897Z,7.60
2018-12-10T14:42:54.374Z,7.60
2018-12-10T14:45:22.860Z,7.60
2018-12-10T14:47:53.728Z,7.50
2018-12-10T14:50:22.026Z,7.50
2018-12-10T14:52:50.442Z,7.50
2018-12-10T14:55:19.085Z,7.50
2018-12-10T14:57:47.821Z,7.50
2018-12-10T15:00:16.879Z,7.50
2018-12-10T15:02:45.318Z,7.50
2018-12-10T15:05:14.297Z,7.50
2018-12-10T15:07:42.876Z,7.50
2018-12-10T15:10:12.437Z,7.50
2018-12-10T15:12:40.921Z,7.50
2018-12-10T15:15:11.738Z,7.50
2018-12-10T15:17:40.089Z,7.40
2018-12-10T15:20:11.723Z,7.40
2018-12-10T15:22:40.092Z,7.40
2018-12-10T15:25:09.168Z,7.40
2018-12-10T15:27:37.852Z,7.40
2018-12-10T15:30:09.295Z,7.40
2018-12-10T15:32:37.877Z,7.40
2018-12-10T15:35:06.767Z,7.30
2018-12-10T15:37:34.687Z,7.30
2018-12-10T15:40:03.572Z,7.30
2018-12-10T15:42:32.061Z,7.30
2018-12-10T15:45:00.406Z,7.30
2018-12-10T15:47:28.371Z,7.40
2018-12-10T15:49:57.102Z,7.30
2018-12-10T15:52:25.463Z,7.30
2018-12-10T15:54:53.765Z,7.40
2018-12-10T15:57:22.414Z,7.30
2018-12-10T15:59:51.583Z,7.30
2018-12-10T16:02:19.938Z,7.30
2018-12-10T16:04:49.226Z,7.30
2018-12-10T16:07:17.755Z,7.20
2018-12-10T16:09:46.454Z,7.20
2018-12-10T16:12:14.753Z,7.20
2018-12-10T16:14:43.298Z,7.20
2018-12-10T16:17:11.815Z,7.20
2018-12-10T16:19:40.641Z,7.20
2018-12-10T16:22:09.193Z,7.20
2018-12-10T16:24:37.486Z,7.20
2018-12-10T16:27:06.414Z,7.20
2018-12-10T16:29:34.731Z,7.20
2018-12-10T16:32:03.049Z,7.20
2018-12-10T16:34:31.470Z,7.20
2018-12-10T16:36:59.868Z,7.20
2018-12-10T16:39:28.357Z,7.20
2018-12-10T16:41:56.975Z,7.20
2018-12-10T16:44:25.270Z,7.20
2018-12-10T16:46:53.635Z,7.10
2018-12-10T16:49:21.919Z,7.10
2018-12-10T16:51:50.619Z,7.20
2018-12-10T16:54:22.738Z,7.10
2018-12-10T16:56:53.275Z,7.10
2018-12-10T16:59:22.015Z,7.10
2018-12-10T17:08:02.669Z,7.10
2018-12-10T17:10:31.123Z,7.10
2018-12-10T17:13:00.021Z,7.00
2018-12-10T17:15:32.832Z,7.10
2018-12-10T17:18:01.426Z,7.00
2018-12-10T17:20:29.910Z,7.00
2018-12-10T17:22:58.431Z,7.10
2018-12-10T17:25:26.798Z,7.10
2018-12-10T17:27:55.197Z,7.10
2018-12-10T17:30:23.693Z,7.10
2018-12-10T17:32:51.992Z,7.20
2018-12-10T17:35:20.655Z,7.10
2018-12-10T17:37:49.001Z,7.10
2018-12-10T17:40:17.367Z,7.10
2018-12-10T17:42:46.118Z,7.10
2018-12-10T17:45:14.536Z,7.10
2018-12-10T17:47:45.623Z,7.10
2018-12-10T17:50:16.648Z,7.10
2018-12-10T17:52:45.124Z,7.10
2018-12-10T17:55:13.665Z,7.10
2018-12-10T17:57:42.022Z,7.10
2018-12-10T18:00:11.576Z,7.10
2018-12-10T18:02:40.230Z,7.10
2018-12-10T18:05:09.122Z,7.10
2018-12-10T18:07:37.706Z,7.10
2018-12-10T18:10:06.847Z,7.10
2018-12-10T18:12:35.396Z,7.10
2018-12-10T18:15:04.637Z,7.00
2018-12-10T18:17:32.918Z,7.00
2018-12-10T18:20:01.343Z,7.00
2018-12-10T18:22:29.816Z,7.00
2018-12-10T18:24:58.090Z,7.00
2018-12-10T18:27:26.459Z,7.00
2018-12-10T18:29:54.763Z,7.00
2018-12-10T18:32:23.126Z,7.00
2018-12-10T18:34:51.512Z,7.00
2018-12-10T18:37:20.058Z,7.00
2018-12-10T18:39:48.343Z,7.00
2018-12-10T18:42:17.143Z,7.00
2018-12-10T18:44:45.635Z,7.00
2018-12-10T18:47:14.017Z,7.00
2018-12-10T18:49:42.619Z,7.00
2018-12-10T18:52:11.046Z,7.00
2018-12-10T18:54:39.723Z,7.10
2018-12-10T18:57:08.269Z,7.10
2018-12-10T18:59:36.813Z,7.10
2018-12-10T19:02:05.385Z,7.10
2018-12-10T19:04:34.220Z,7.10
2018-12-10T19:07:02.517Z,7.10
2018-12-10T19:09:31.005Z,7.10
2018-12-10T19:11:59.527Z,7.10
2018-12-10T19:14:28.115Z,7.10
2018-12-10T19:16:56.621Z,7.10
2018-12-10T19:19:25.421Z,7.10
2018-12-10T19:21:53.738Z,7.10
2018-12-10T19:24:22.350Z,7.10
2018-12-10T19:26:51.430Z,7.10
2018-12-10T19:29:19.788Z,7.10
2018-12-10T19:31:49.613Z,7.10
2018-12-10T19:34:17.938Z,7.20
2018-12-10T19:36:46.313Z,7.20
2018-12-10T19:39:14.601Z,7.20
2018-12-10T19:41:43.007Z,7.20
2018-12-10T19:44:13.126Z,7.20
2018-12-10T19:46:41.672Z,7.30
2018-12-10T19:49:10.014Z,7.30
2018-12-10T19:51:38.625Z,7.30
2018-12-10T19:54:07.184Z,7.30
2018-12-10T19:56:35.710Z,7.30
2018-12-10T19:59:04.492Z,7.30
2018-12-10T20:01:32.795Z,7.30
2018-12-10T20:04:01.149Z,7.30
2018-12-10T20:06:32.790Z,7.30
2018-12-10T20:09:01.323Z,7.20
2018-12-10T20:11:29.713Z,7.20
2018-12-10T20:13:58.822Z,7.20
2018-12-10T20:16:27.424Z,7.20
2018-12-10T20:18:56.090Z,7.20
2018-12-10T20:21:24.427Z,7.10
2018-12-10T20:23:52.846Z,7.10
2018-12-10T20:26:21.487Z,7.10
2018-12-10T20:28:50.668Z,7.10
2018-12-10T20:31:19.339Z,7.10
2018-12-10T20:33:47.934Z,7.10
2018-12-10T20:36:16.263Z,7.10
2018-12-10T20:38:44.702Z,7.10
2018-12-10T20:41:13.047Z,7.10
2018-12-10T20:43:41.504Z,7.10
2018-12-10T20:46:10.164Z,7.10
2018-12-10T20:48:38.705Z,7.10
2018-12-10T20:51:07.138Z,7.10
2018-12-10T20:53:37.301Z,7.10
2018-12-10T20:56:06.997Z,7.10
2018-12-10T20:58:35.794Z,7.10
2018-12-10T21:01:04.246Z,7.10
2018-12-10T21:03:32.673Z,7.10
2018-12-10T21:06:06.426Z,7.10
2018-12-10T21:08:34.989Z,7.10
2018-12-10T21:11:03.532Z,7.10
2018-12-10T21:13:31.969Z,7.10
2018-12-10T21:16:00.348Z,7.10
2018-12-10T21:18:28.884Z,7.20
2018-12-10T21:20:57.630Z,7.20
2018-12-10T21:23:25.954Z,7.20
2018-12-10T21:25:55.518Z,7.20
2018-12-10T21:28:24.033Z,7.20
2018-12-10T21:30:52.769Z,7.20
2018-12-10T21:33:21.861Z,7.20
2018-12-10T21:35:50.375Z,7.20
2018-12-10T21:38:19.013Z,7.20
2018-12-10T21:40:47.543Z,7.20
2018-12-10T21:43:15.993Z,7.20
2018-12-10T21:45:44.467Z,7.20
2018-12-10T21:48:13.018Z,7.10
2018-12-10T21:50:41.443Z,7.20
2018-12-10T21:53:09.796Z,7.10
2018-12-10T21:55:38.159Z,7.10
2018-12-10T21:58:11.128Z,7.10
2018-12-10T22:07:38.580Z,7.10
2018-12-10T22:10:07.522Z,7.10
2018-12-10T22:12:35.895Z,7.10
2018-12-10T22:15:05.106Z,7.10
2018-12-10T22:17:33.613Z,7.10
2018-12-10T22:20:01.981Z,7.10
2018-12-10T22:22:30.359Z,7.10
2018-12-10T22:24:58.794Z,7.10
2018-12-10T22:27:27.113Z,7.10
2018-12-10T22:29:55.583Z,7.10
2018-12-10T22:32:24.255Z,7.10
2018-12-10T22:34:52.551Z,7.10
2018-12-10T22:37:20.873Z,7.20
2018-12-10T22:39:49.446Z,7.20
2018-12-10T22:42:17.748Z,7.10
2018-12-10T22:44:46.165Z,7.10
2018-12-10T22:47:14.526Z,7.20
2018-12-10T22:49:42.916Z,7.20
2018-12-10T22:52:12.365Z,7.20
2018-12-10T22:54:40.631Z,7.20
2018-12-10T22:57:09.082Z,7.20
2018-12-10T22:59:37.533Z,7.20
2018-12-10T23:02:06.234Z,7.20
2018-12-10T23:04:34.614Z,7.30
2018-12-10T23:07:02.927Z,7.30
2018-12-10T23:09:31.306Z,7.30
2018-12-10T23:12:01.750Z,7.30
2018-12-10T23:14:30.724Z,7.30
2018-12-10T23:16:59.216Z,7.40
2018-12-10T23:19:27.791Z,7.40
2018-12-10T23:21:56.121Z,7.40
2018-12-10T23:29:22.481Z,7.50
2018-12-10T23:31:53.206Z,7.60
2018-12-10T23:34:24.003Z,7.50
2018-12-10T23:36:57.414Z,7.50
2018-12-10T23:39:26.213Z,7.50
2018-12-10T23:42:16.933Z,7.50
